createdAt,value
2022-08-23T00:01:01.211Z,73.71
2022-08-23T00:06:08.039Z,73.79
2022-08-23T00:11:26.692Z,73.88
2022-08-23T00:16:32.326Z,73.95
2022-08-23T00:21:39.158Z,74.00
2022-08-23T00:26:59.980Z,73.90
2022-08-23T00:32:06.435Z,73.83
2022-08-23T00:37:12.681Z,73.68
2022-08-23T00:42:44.230Z,73.47
2022-08-23T00:47:51.377Z,73.32
2022-08-23T00:53:02.900Z,73.33
2022-08-23T00:58:09.439Z,73.32
2022-08-23T01:03:16.002Z,73.37
2022-08-23T01:08:26.949Z,73.45
2022-08-23T01:13:41.993Z,73.41
2022-08-23T01:18:48.841Z,73.28
2022-08-23T01:23:56.483Z,73.08
2022-08-23T01:29:01.817Z,72.86
2022-08-23T01:34:08.884Z,72.74
2022-08-23T01:39:14.450Z,72.87
2022-08-23T01:44:20.400Z,73.04
2022-08-23T01:49:27.277Z,73.14
2022-08-23T01:54:33.163Z,73.12
2022-08-23T01:59:38.895Z,73.06
2022-08-23T02:04:44.830Z,72.93
2022-08-23T02:09:50.291Z,72.70
2022-08-23T02:14:55.763Z,72.50
2022-08-23T02:20:05.242Z,72.31
2022-08-23T02:25:11.775Z,72.09
2022-08-23T02:30:17.522Z,71.86
2022-08-23T02:35:24.431Z,71.70
2022-08-23T02:40:30.211Z,71.55
2022-08-23T02:45:35.715Z,71.38
2022-08-23T02:50:41.344Z,71.22
2022-08-23T02:55:49.158Z,71.10
2022-08-23T03:00:55.749Z,71.06
2022-08-23T03:06:24.637Z,71.04
2022-08-23T03:11:27.468Z,71.03
2022-08-23T03:16:32.857Z,71.00
2022-08-23T03:21:40.170Z,70.93
2022-08-23T03:26:49.805Z,70.93
2022-08-23T03:31:56.413Z,70.97
2022-08-23T03:37:04.510Z,71.06
2022-08-23T03:42:11.424Z,71.13
2022-08-23T03:47:17.192Z,71.22
2022-08-23T03:52:23.116Z,71.30
2022-08-23T03:57:28.938Z,71.43
2022-08-23T04:02:35.274Z,71.58
2022-08-23T04:07:41.210Z,71.73
2022-08-23T04:12:47.253Z,71.89
2022-08-23T04:17:54.258Z,72.03
2022-08-23T04:23:00.541Z,72.20
2022-08-23T04:28:08.423Z,72.38
2022-08-23T04:33:17.806Z,72.51
2022-08-23T04:38:25.455Z,72.59
2022-08-23T04:43:34.215Z,72.55
2022-08-23T04:48:40.046Z,72.45
2022-08-23T04:53:45.853Z,72.48
2022-08-23T04:59:14.382Z,72.66
2022-08-23T05:04:21.791Z,72.90
2022-08-23T05:09:27.659Z,73.16
2022-08-23T05:14:33.132Z,73.43
2022-08-23T05:19:44.246Z,73.66
2022-08-23T05:24:53.852Z,73.86
2022-08-23T05:29:59.366Z,74.03
2022-08-23T05:35:05.053Z,74.15
2022-08-23T05:40:12.280Z,74.25
2022-08-23T05:45:26.817Z,74.33
2022-08-23T05:50:32.997Z,74.40
2022-08-23T05:55:40.791Z,74.44
2022-08-23T06:01:04.274Z,74.46
2022-08-23T06:06:10.591Z,74.45
2022-08-23T06:11:17.407Z,74.43
2022-08-23T06:16:24.312Z,74.41
2022-08-23T06:21:30.307Z,74.41
2022-08-23T06:26:38.610Z,74.36
2022-08-23T06:31:47.561Z,74.30
2022-08-23T06:37:01.006Z,74.24
2022-08-23T06:42:41.487Z,74.20
2022-08-23T06:47:50.704Z,74.18
2022-08-23T06:52:57.664Z,74.16
2022-08-23T06:58:24.849Z,74.12
2022-08-23T07:03:57.767Z,74.05
2022-08-23T07:09:43.853Z,73.95
2022-08-23T07:14:49.883Z,73.86
2022-08-23T07:19:56.920Z,73.75
2022-08-23T07:25:02.518Z,73.67
2022-08-23T07:30:09.252Z,73.62
2022-08-23T07:35:17.360Z,73.58
2022-08-23T07:40:24.244Z,73.56
2022-08-23T07:45:37.248Z,73.51
2022-08-23T07:50:50.006Z,73.45
2022-08-23T07:56:08.195Z,73.44
2022-08-23T08:01:41.352Z,73.40
2022-08-23T08:06:59.816Z,73.28
2022-08-23T08:12:15.523Z,73.10
2022-08-23T08:17:25.435Z,72.92
2022-08-23T08:22:58.302Z,72.73
2022-08-23T08:28:15.260Z,72.58
2022-08-23T08:33:22.251Z,72.44
2022-08-23T08:38:30.894Z,72.25
2022-08-23T08:43:43.143Z,71.99
2022-08-23T08:48:51.521Z,71.62
2022-08-23T08:53:57.926Z,71.25
2022-08-23T08:59:16.353Z,70.81
2022-08-23T09:04:22.859Z,70.36
2022-08-23T09:09:40.913Z,69.88
2022-08-23T09:14:52.141Z,69.48
2022-08-23T09:20:00.699Z,69.08
2022-08-23T09:25:10.359Z,68.66
2022-08-23T09:30:21.758Z,68.21
2022-08-23T09:35:28.033Z,67.76
2022-08-23T09:40:42.853Z,67.27
2022-08-23T09:45:57.863Z,66.83
2022-08-23T09:51:11.237Z,66.45
2022-08-23T09:56:26.328Z,66.11
2022-08-23T10:01:39.109Z,65.66
2022-08-23T10:06:51.656Z,65.13
2022-08-23T10:11:59.143Z,64.62
2022-08-23T10:17:11.519Z,64.16
2022-08-23T10:22:21.461Z,63.70
2022-08-23T10:28:25.300Z,63.23
2022-08-23T10:33:38.584Z,62.89
2022-08-23T10:38:47.002Z,62.60
2022-08-23T10:43:55.001Z,62.21
2022-08-23T10:49:02.033Z,61.56
2022-08-23T10:54:10.105Z,60.93
2022-08-23T10:59:20.783Z,60.43
2022-08-23T11:04:31.601Z,60.07
2022-08-23T11:10:06.243Z,59.85
2022-08-23T11:15:21.699Z,59.54
2022-08-23T11:20:45.431Z,58.95
2022-08-23T11:25:50.956Z,58.37
2022-08-23T11:31:19.442Z,57.97
2022-08-23T11:36:26.396Z,57.63
2022-08-23T11:41:33.923Z,57.18
2022-08-23T11:46:54.179Z,56.77
2022-08-23T11:52:04.746Z,56.41
2022-08-23T11:57:20.906Z,56.05
2022-08-23T12:02:34.526Z,55.53
2022-08-23T12:07:47.575Z,55.05
2022-08-23T12:13:17.151Z,54.63
2022-08-23T12:18:24.135Z,54.32
2022-08-23T12:23:31.601Z,54.17
2022-08-23T12:28:40.024Z,53.80
2022-08-23T12:33:51.846Z,53.21
2022-08-23T12:39:02.509Z,52.92
2022-08-23T12:44:09.537Z,52.89
2022-08-23T12:49:24.963Z,52.90
2022-08-23T12:54:37.189Z,52.67
2022-08-23T12:59:45.239Z,52.20
2022-08-23T13:04:50.856Z,51.78
2022-08-23T13:09:56.975Z,51.41
2022-08-23T13:15:04.972Z,51.04
2022-08-23T13:20:19.017Z,50.74
2022-08-23T13:25:31.619Z,50.47
2022-08-23T13:30:39.160Z,50.29
2022-08-23T13:35:47.208Z,50.12
2022-08-23T13:41:00.471Z,49.96
2022-08-23T13:46:14.175Z,49.93
2022-08-23T13:51:38.576Z,49.91
2022-08-23T13:56:47.970Z,49.60
2022-08-23T14:01:54.731Z,49.43
2022-08-23T14:07:00.131Z,49.32
2022-08-23T14:12:09.652Z,49.19
2022-08-23T14:17:16.582Z,49.04
2022-08-23T14:22:23.094Z,48.98
2022-08-23T14:27:28.794Z,48.96
2022-08-23T14:32:34.690Z,48.93
2022-08-23T14:43:06.272Z,48.38
2022-08-23T14:48:11.811Z,48.07
2022-08-23T14:53:18.184Z,47.86
2022-08-23T14:58:24.873Z,47.71
2022-08-23T15:03:31.391Z,47.59
2022-08-23T15:08:37.847Z,47.55
2022-08-23T15:13:55.549Z,47.52
2022-08-23T15:19:01.868Z,47.55
2022-08-23T15:24:07.707Z,47.59
2022-08-23T15:29:13.429Z,47.64
2022-08-23T15:34:24.870Z,47.71
2022-08-23T15:39:31.064Z,47.79
2022-08-23T15:44:36.580Z,47.86
2022-08-23T15:49:42.904Z,47.88
2022-08-23T15:54:48.950Z,47.90
2022-08-23T15:59:54.614Z,47.96
2022-08-23T16:05:00.481Z,47.97
2022-08-23T16:10:07.026Z,47.98
2022-08-23T16:15:13.237Z,48.18
2022-08-23T16:20:18.765Z,48.69
2022-08-23T16:25:24.308Z,49.04
2022-08-23T16:30:30.773Z,49.11
2022-08-23T16:35:36.295Z,49.21
2022-08-23T16:40:41.799Z,49.50
2022-08-23T16:45:47.620Z,49.87
2022-08-23T16:50:53.316Z,50.24
2022-08-23T16:55:58.812Z,50.63
2022-08-23T17:01:04.306Z,51.02
2022-08-23T17:06:10.694Z,51.47
2022-08-23T17:11:17.517Z,51.92
2022-08-23T17:16:24.592Z,52.34
2022-08-23T17:21:30.125Z,52.77
2022-08-23T17:26:35.641Z,53.14
2022-08-23T17:31:41.155Z,53.52
2022-08-23T17:36:48.937Z,53.88
2022-08-23T17:41:58.151Z,54.20
2022-08-23T17:47:07.173Z,54.54
2022-08-23T17:52:13.392Z,54.84
2022-08-23T17:57:18.876Z,55.13
2022-08-23T18:02:24.326Z,55.42
2022-08-23T18:07:30.944Z,55.69
2022-08-23T18:12:36.467Z,55.92
2022-08-23T18:17:42.255Z,56.17
2022-08-23T18:22:48.073Z,56.47
2022-08-23T18:28:11.556Z,56.78
2022-08-23T18:33:17.311Z,57.00
2022-08-23T18:38:23.911Z,57.11
2022-08-23T18:43:37.180Z,57.17
2022-08-23T18:48:43.233Z,57.23
2022-08-23T18:53:59.264Z,57.28
2022-08-23T18:59:04.752Z,57.38
2022-08-23T19:04:11.070Z,57.54
2022-08-23T19:09:16.832Z,57.73
2022-08-23T19:14:22.591Z,57.93
2022-08-23T19:19:28.244Z,58.11
2022-08-23T19:24:33.740Z,58.31
2022-08-23T19:29:39.186Z,58.51
2022-08-23T19:34:44.871Z,58.71
2022-08-23T19:39:50.810Z,58.91
2022-08-23T19:44:56.391Z,59.08
2022-08-23T19:50:02.267Z,59.24
2022-08-23T19:55:08.670Z,59.41
2022-08-23T20:00:19.358Z,59.59
2022-08-23T20:05:25.424Z,59.77
2022-08-23T20:10:31.183Z,59.94
2022-08-23T20:15:36.804Z,60.10
2022-08-23T20:20:42.941Z,60.26
2022-08-23T20:25:48.528Z,60.40
2022-08-23T20:30:54.416Z,60.55
2022-08-23T20:36:00.043Z,60.69
2022-08-23T20:41:05.702Z,60.84
2022-08-23T20:46:11.505Z,61.01
2022-08-23T20:51:17.402Z,61.17
2022-08-23T20:56:23.862Z,61.35
2022-08-23T21:01:30.099Z,61.53
2022-08-23T21:06:45.363Z,61.70
2022-08-23T21:11:52.249Z,61.86
2022-08-23T21:16:57.507Z,62.04
2022-08-23T21:22:03.047Z,62.19
2022-08-23T21:27:09.494Z,62.30
2022-08-23T21:32:15.364Z,62.39
2022-08-23T21:37:21.223Z,62.47
2022-08-23T21:42:26.739Z,62.54
2022-08-23T21:47:32.490Z,62.58
2022-08-23T21:52:38.324Z,62.60
2022-08-23T21:57:46.223Z,62.63
2022-08-23T22:02:51.674Z,62.64
2022-08-23T22:07:57.718Z,62.65
2022-08-23T22:13:04.471Z,62.66
2022-08-23T22:18:10.204Z,62.66
2022-08-23T22:23:16.018Z,62.65
2022-08-23T22:28:21.627Z,62.67
2022-08-23T22:33:27.488Z,62.71
2022-08-23T22:38:33.005Z,62.77
2022-08-23T22:43:38.697Z,62.87
2022-08-23T22:48:44.736Z,63.00
2022-08-23T22:53:52.530Z,63.14
2022-08-23T22:58:59.243Z,63.26
2022-08-23T23:04:05.440Z,63.36
2022-08-23T23:09:11.803Z,63.45
2022-08-23T23:14:19.459Z,63.51
2022-08-23T23:19:42.437Z,63.58
2022-08-23T23:24:51.374Z,63.65
2022-08-23T23:29:56.929Z,63.73
2022-08-23T23:35:02.619Z,63.83
2022-08-23T23:40:09.263Z,63.91
2022-08-23T23:45:15.412Z,64.01
2022-08-23T23:50:21.257Z,64.14
2022-08-23T23:55:27.416Z,64.26
